Home > Products > Valid Products > TAF

000
FTUS45 KPIH 080812 AAC
TAFPIH
TAF AMD
KPIH 080812Z 0808/0906 VRB05KT 3/4SM BR OVC003
     FM081000 VRB05KT 1/2SM FZFG OVC002
     FM081900 VRB05KT P6SM BKN010
     FM090000 VRB05KT P6SM SCT030=



000
FTUS45 KPIH 080710 AAB
TAFIDA
TAF AMD
KIDA 080710Z 0807/0906 36005KT 1/4SM FZFG OVC002
      TEMPO 0807/0809 3SM BR OVC003
     FM081700 36005KT 1/2SM FZFG OVC006
     FM082100 36005KT 6SM BR OVC010
     FM090400 01005KT 1SM BR OVC003=



000
FTUS45 KPIH 080710 AAB
TAFIDA
TAF AMD
KIDA 080710Z 0807/0906 36005KT 1/4SM FZFG OVC002
      TEMPO 0807/0809 3SM BR OVC003
     FM081700 36005KT 1/2SM FZFG OVC006
     FM082100 36005KT 6SM BR OVC010
     FM090400 01005KT 1SM BR OVC003=



000
FTUS45 KPIH 080648 AAB
TAFBYI
TAF AMD
KBYI 080648Z 0807/0906 VRB05KT 1SM BR VCFG BKN003
     FM081800 04005KT P6SM SCT005 SCT200=



000
FTUS45 KPIH 080642 AAA
TAFBYI
TAF AMD
KBYI 080642Z 0807/0906 VRB05KT 6SM BR BKN003
     FM081800 04005KT P6SM SCT005 SCT200=



000
FTUS45 KPIH 080642 AAA
TAFBYI
TAF AMD
KBYI 080642Z 0807/0906 VRB05KT 6SM BR BKN003
     FM081800 04005KT P6SM SCT005 SCT200=



000
FTUS45 KPIH 080628 AAA
TAFIDA
TAF AMD
KIDA 080628Z 0806/0906 36005KT 1/4SM FZFG OVC002
     FM081700 36005KT 1/2SM FZFG OVC006
     FM082100 36005KT 6SM BR OVC010
     FM090400 01005KT 1SM BR OVC003=



000
FTUS45 KPIH 080524
TAFIDA
TAF
KIDA 080524Z 0806/0906 36005KT 1SM BR OVC003
      TEMPO 0806/0809 1/2SM FZFG OVC002
     FM080900 01005KT 1/4SM FZFG OVC002
     FM081700 36005KT 1/2SM FZFG OVC006
     FM082100 36005KT 6SM BR OVC010
     FM090400 01005KT 1SM BR OVC003=



000
FTUS45 KPIH 080524
TAFSUN
TAF
KSUN 080524Z 0806/0906 33009KT P6SM SCT200
     FM081900 12007KT P6SM SCT200
     FM090300 32011KT P6SM SKC
      AMD LTD TO CLD VIS AND WIND TIL 081400=



000
FTUS45 KPIH 080524
TAFBYI
TAF
KBYI 080524Z 0806/0906 VRB05KT P6SM SKC
     FM081000 VRB05KT 6SM BR BKN012
     FM081800 04005KT P6SM SCT200=



000
FTUS45 KPIH 080524
TAFPIH
TAF
KPIH 080524Z 0806/0906 VRB05KT 1SM BR OVC003
      TEMPO 0806/0810 1/4SM FZFG OVC002
     FM081000 VRB05KT 1/2SM FZFG OVC002
     FM081900 VRB05KT P6SM BKN010
     FM090000 VRB05KT P6SM SCT030=



000
FTUS45 KPIH 080524
TAFIDA
TAF
KIDA 080524Z 0806/0906 36005KT 1SM BR OVC003
      TEMPO 0806/0809 1/2SM FZFG OVC002
     FM080900 01005KT 1/4SM FZFG OVC002
     FM081700 36005KT 1/2SM FZFG OVC006
     FM082100 36005KT 6SM BR OVC010
     FM090400 01005KT 1SM BR OVC003=



000
FTUS45 KPIH 080524
TAFSUN
TAF
KSUN 080524Z 0806/0906 33009KT P6SM SCT200
     FM081900 12007KT P6SM SCT200
     FM090300 32011KT P6SM SKC
      AMD LTD TO CLD VIS AND WIND TIL 081400=



000
FTUS45 KPIH 080524
TAFPIH
TAF
KPIH 080524Z 0806/0906 VRB05KT 1SM BR OVC003
      TEMPO 0806/0810 1/4SM FZFG OVC002
     FM081000 VRB05KT 1/2SM FZFG OVC002
     FM081900 VRB05KT P6SM BKN010
     FM090000 VRB05KT P6SM SCT030=



000
FTUS45 KPIH 080524
TAFBYI
TAF
KBYI 080524Z 0806/0906 VRB05KT P6SM SKC
     FM081000 VRB05KT 6SM BR BKN012
     FM081800 04005KT P6SM SCT200=



000
FTUS45 KPIH 080218 AAB
TAFPIH
TAF AMD
KPIH 080218Z 0802/0824 VRB05KT 1SM BR OVC006
      TEMPO 0802/0806 1/4SM FZFG OVC003
     FM081000 VRB05KT 1/2SM FZFG OVC003
     FM081900 VRB05KT P6SM SCT015 SCT200=



000
FTUS45 KPIH 080218 AAB
TAFPIH
TAF AMD
KPIH 080218Z 0802/0824 VRB05KT 1SM BR OVC006
      TEMPO 0802/0806 1/4SM FZFG OVC003
     FM081000 VRB05KT 1/2SM FZFG OVC003
     FM081900 VRB05KT P6SM SCT015 SCT200=



000
FTUS45 KPIH 080157 AAA
TAFIDA
TAF AMD
KIDA 080157Z 0802/0824 36005KT 1SM BR OVC003
     FM080600 01005KT 1/4SM FZFG OVC005
     FM081700 36005KT 1/2SM FZFG OVC006
     FM082100 36005KT 6SM BR OVC010=



000
FTUS45 KPIH 080147 AAA
TAFPIH
TAF AMD
KPIH 080147Z 0802/0824 VRB05KT 3SM BR OVC006
      TEMPO 0802/0806 1/2SM FZFG OVC003
     FM081000 VRB05KT 1/2SM FZFG OVC003
     FM081900 VRB05KT P6SM SCT015 SCT200=



000
FTUS45 KPIH 072320
TAFSUN
TAF
KSUN 072320Z 0800/0824 13006KT P6SM FEW100
     FM080200 31009KT P6SM SCT200
     FM081900 12007KT P6SM SCT200
      AMD LTD TO CLD VIS AND WIND 0806/0814=



000
FTUS45 KPIH 072320
TAFIDA
TAF
KIDA 072320Z 0800/0824 36005KT P6SM OVC005
     FM080600 01005KT 1/4SM FZFG OVC005
     FM081700 36005KT 1/2SM FZFG OVC006
     FM082100 36005KT 6SM BR OVC010=



000
FTUS45 KPIH 072320
TAFPIH
TAF
KPIH 072320Z 0800/0824 VRB05KT P6SM SKC
     FM080500 24005KT P6SM BKN015
     FM081000 VRB05KT 3SM BR OVC007
     FM081900 VRB05KT P6SM SCT015 SCT200=



000
FTUS45 KPIH 072320
TAFBYI
TAF
KBYI 072320Z 0800/0824 VRB05KT P6SM SKC
     FM080500 VRB05KT P6SM FEW009 FEW200
     FM081800 04005KT P6SM SCT200=



000
FTUS45 KPIH 072230 AAC
TAFIDA
TAF AMD
KIDA 072230Z 0723/0818 34007KT 4SM BR OVC004
     FM080100 01005KT 2SM BR OVC005
     FM080600 01005KT 1/4SM FZFG OVC005
     FM081600 36005KT 1/2SM FZFG OVC006=



000
FTUS45 KPIH 072005 AAB
TAFIDA
TAF AMD
KIDA 072005Z 0720/0818 34007KT 2SM BR OVC004
     FM080100 01005KT 1/2SM FZFG OVC005
     FM080600 01005KT 1/4SM FZFG OVC005
     FM081600 36005KT 1/2SM FZFG OVC006=



000
FTUS45 KPIH 071831 AAA
TAFIDA
TAF AMD
KIDA 071831Z 0719/0818 34007KT 5SM BR BKN008
     FM072100 34006KT P6SM SCT008 BKN015
     FM080100 01005KT 3SM BR BKN007 OVC015
     FM080600 01005KT 1SM BR BKN006 OVC012=



000
FTUS45 KPIH 071831 AAA
TAFIDA
TAF AMD
KIDA 071831Z 0719/0818 34007KT 5SM BR BKN008
     FM072100 34006KT P6SM SCT008 BKN015
     FM080100 01005KT 3SM BR BKN007 OVC015
     FM080600 01005KT 1SM BR BKN006 OVC012=



000
FTUS45 KPIH 071723
TAFPIH
TAF
KPIH 071723Z 0718/0818 26008KT P6SM SCT025
     FM080300 24005KT P6SM BKN015
     FM081000 VRB05KT 3SM BR BKN009=



000
FTUS45 KPIH 071723
TAFIDA
TAF
KIDA 071723Z 0718/0818 34007KT P6SM FEW007 BKN015
     FM072000 34006KT P6SM FEW010 SCT015
     FM080100 01005KT 3SM BR BKN007 OVC015
     FM080600 01005KT 1SM BR BKN006 OVC012=



000
FTUS45 KPIH 071723
TAFBYI
TAF
KBYI 071723Z 0718/0818 28008KT P6SM FEW200
     FM080200 VRB05KT P6SM FEW009 FEW200=



000
FTUS45 KPIH 071723
TAFSUN
TAF
KSUN 071723Z 0718/0818 31009KT P6SM FEW100
     FM072000 13006KT P6SM FEW100
     FM080200 31009KT P6SM SCT200=



000
FTUS45 KPIH 071609 AAC
TAFIDA
TAF AMD
KIDA 071609Z 0716/0812 36005KT 3SM BR BKN007 OVC013
     FM071700 36005KT 5SM BR FEW007 BKN015
     FM072000 01005KT 6SM BR FEW010 SCT015
     FM080200 01005KT 1SM BR BKN007 OVC015=



000
FTUS45 KPIH 071453 AAB
TAFIDA
TAF AMD
KIDA 071453Z 0715/0812 36005KT 1/2SM FZFG SCT003 OVC013
      TEMPO 0715/0717 1/4SM FZFG OVC002
     FM071700 33006KT 3SM BR OVC015=



000
FTUS45 KPIH 071339 AAB
TAFPIH
TAF AMD
KPIH 071339Z 0714/0812 23009KT P6SM BKN025
      TEMPO 0714/0717 SCT025
     FM071700 26009KT P6SM SCT025
     FM080300 24005KT P6SM BKN010=



000
FTUS45 KPIH 071339 AAB
TAFPIH
TAF AMD
KPIH 071339Z 0714/0812 23009KT P6SM BKN025
      TEMPO 0714/0717 SCT025
     FM071700 26009KT P6SM SCT025
     FM080300 24005KT P6SM BKN010=



000
FTUS45 KPIH 071253 AAA
TAFIDA
TAF AMD
KIDA 071253Z 0713/0812 36005KT 3SM BR SCT002 OVC015
      TEMPO 0713/0715 1/4SM FZFG OVC002
     FM071500 33006KT 5SM BR OVC015=



000
FTUS45 KPIH 071203 CCA
TAFPIH
TAF COR
KPIH 071203Z 0712/0812 23009KT P6SM BKN025
      TEMPO 0714/0717 BKN015
     FM071700 26009KT P6SM SCT015
     FM080300 24005KT P6SM BKN010=



000
FTUS45 KPIH 071125
TAFIDA
TAF
KIDA 071125Z 0712/0812 VRB05KT 6SM BR SCT002
      TEMPO 0712/0715 1SM BR OVC002
     FM071500 33006KT 5SM BR OVC015=



000
FTUS45 KPIH 071125
TAFSUN
TAF
KSUN 071125Z 0712/0812 31009KT P6SM SCT100
     FM072000 12007KT P6SM FEW100
     FM080200 31008KT P6SM SCT200
      AMD LTD TO CLD VIS AND WIND TIL 071400=



000
FTUS45 KPIH 071125
TAFPIH
TAF
KPIH 071125Z 0712/0812 21009KT P6SM BKN035
      TEMPO 0714/0717 BKN015
     FM071700 26009KT P6SM SCT015
     FM080300 24005KT P6SM BKN010=



000
FTUS45 KPIH 071125
TAFBYI
TAF
KBYI 071125Z 0712/0812 24008KT P6SM FEW015
     FM071800 28010KT P6SM BKN015=



000
FTUS45 KPIH 071012 AAC
TAFIDA
TAF AMD
KIDA 071012Z 0710/0806 VRB05KT 5SM BR SCT020
      TEMPO 0710/0714 1SM BR OVC020
     FM071400 35007KT 5SM BR OVC015
     FM072000 33005KT P6SM SCT012=



000
FTUS45 KPIH 071012 AAC
TAFIDA
TAF AMD
KIDA 071012Z 0710/0806 VRB05KT 5SM BR SCT020
      TEMPO 0710/0714 1SM BR OVC020
     FM071400 35007KT 5SM BR OVC015
     FM072000 33005KT P6SM SCT012=



000
FTUS45 KPIH 070941 AAB
TAFIDA
TAF AMD
KIDA 070941Z 0710/0806 VRB05KT 3SM BR SCT020
      TEMPO 0710/0714 1/4SM FZFG OVC004
     FM071400 35007KT 5SM BR OVC015
     FM072000 33005KT P6SM SCT012=



000
FTUS45 KPIH 070907 AAA
TAFIDA
TAF AMD
KIDA 070907Z 0709/0806 VRB05KT P6SM SCT020 BKN100
     FM071100 35007KT 5SM BR OVC015
     FM072000 33005KT P6SM SCT012=



000
FTUS45 KPIH 070521
TAFIDA
TAF
KIDA 070521Z 0706/0806 23009KT P6SM SCT008
     FM070900 35007KT 5SM BR OVC008
     FM072000 33005KT P6SM SCT012=



000
FTUS45 KPIH 070521
TAFPIH
TAF
KPIH 070521Z 0706/0806 24011KT P6SM SCT200
     FM071100 21007KT P6SM OVC010
     FM071700 26009KT P6SM SCT015=



000
FTUS45 KPIH 070521
TAFBYI
TAF
KBYI 070521Z 0706/0806 26008KT P6SM FEW015
     FM071400 VRB05KT P6SM BKN012
     FM071800 25012KT P6SM SCT015
     FM080100 20007KT P6SM SCT200=



000
FTUS45 KPIH 070521
TAFSUN
TAF
KSUN 070521Z 0706/0806 31009KT P6SM SCT100
     FM072000 12007KT P6SM FEW100
     FM080200 31008KT P6SM SCT200
      AMD LTD TO CLD VIS AND WIND TIL 071400=



000
FTUS45 KPIH 070212 AAA
TAFPIH
TAF AMD
KPIH 070212Z 0702/0724 19011KT P6SM SCT200
     FM070900 21007KT P6SM OVC010
     FM071900 26009KT P6SM SCT015=



000
FTUS45 KPIH 062325
TAFIDA
TAF
KIDA 062325Z 0700/0724 21009KT 6SM BR SCT030 BKN060
     FM070100 23009KT P6SM SCT008
     FM070700 35007KT 5SM BR OVC008
     FM072100 33005KT P6SM SCT012=



000
FTUS45 KPIH 062325
TAFSUN
TAF
KSUN 062325Z 0700/0724 16007KT P6SM BKN060
     FM070200 31009KT P6SM SCT100
     FM072000 12007KT P6SM FEW100
      AMD LTD TO CLD VIS AND WIND 0706/0714=



000
FTUS45 KPIH 062325
TAFBYI
TAF
KBYI 062325Z 0700/0724 23009KT P6SM OVC060
     FM070300 26008KT P6SM FEW015
     FM071200 VRB05KT P6SM BKN012
     FM071800 25012KT P6SM SCT015=



000
FTUS45 KPIH 062325
TAFPIH
TAF
KPIH 062325Z 0700/0724 21012G22KT P6SM SCT060
     FM070200 24009KT P6SM SCT200
     FM070900 21007KT P6SM OVC010
     FM071900 26009KT P6SM SCT015=



000
FTUS45 KPIH 062325
TAFIDA
TAF
KIDA 062325Z 0700/0724 21009KT 6SM BR SCT030 BKN060
     FM070100 23009KT P6SM SCT008
     FM070700 35007KT 5SM BR OVC008
     FM072100 33005KT P6SM SCT012=



000
FTUS45 KPIH 062325
TAFSUN
TAF
KSUN 062325Z 0700/0724 16007KT P6SM BKN060
     FM070200 31009KT P6SM SCT100
     FM072000 12007KT P6SM FEW100
      AMD LTD TO CLD VIS AND WIND 0706/0714=



000
FTUS45 KPIH 062325
TAFBYI
TAF
KBYI 062325Z 0700/0724 23009KT P6SM OVC060
     FM070300 26008KT P6SM FEW015
     FM071200 VRB05KT P6SM BKN012
     FM071800 25012KT P6SM SCT015=



000
FTUS45 KPIH 062325
TAFPIH
TAF
KPIH 062325Z 0700/0724 21012G22KT P6SM SCT060
     FM070200 24009KT P6SM SCT200
     FM070900 21007KT P6SM OVC010
     FM071900 26009KT P6SM SCT015=



000
FTUS45 KPIH 062118 AAB
TAFPIH
TAF AMD
KPIH 062118Z 0621/0718 22012G22KT P6SM SCT060
     FM070200 24009KT P6SM FEW010
     FM070700 21007KT P6SM OVC010=



000
FTUS45 KPIH 061815 AAA
TAFPIH
TAF AMD
KPIH 061815Z 0618/0718 23007KT P6SM SCT060
     FM070200 24009KT P6SM FEW010
     FM070700 21007KT P6SM OVC010=



000
FTUS45 KPIH 061815 AAA
TAFPIH
TAF AMD
KPIH 061815Z 0618/0718 23007KT P6SM SCT060
     FM070200 24009KT P6SM FEW010
     FM070700 21007KT P6SM OVC010=



000
FTUS45 KPIH 061735
TAFIDA
TAF
KIDA 061735Z 0618/0718 21009KT 6SM BR SCT030 BKN060
     FM070100 23009KT P6SM SCT008
     FM070500 35007KT 5SM BR OVC008=



000
FTUS45 KPIH 061735
TAFBYI
TAF
KBYI 061735Z 0618/0718 23009KT P6SM OVC060
     FM070300 26008KT P6SM FEW015
     FM071000 VRB05KT P6SM BKN012=



000
FTUS45 KPIH 061735
TAFSUN
TAF
KSUN 061735Z 0618/0718 33008KT P6SM BKN150
     FM061900 16007KT P6SM BKN060
     FM070200 31009KT P6SM SCT100=



000
FTUS45 KPIH 061735
TAFPIH
TAF
KPIH 061735Z 0618/0718 23012KT P6SM SCT060
     FM070200 24009KT P6SM FEW010
     FM070700 21007KT P6SM OVC010=



000
FTUS45 KPIH 061601 AAA
TAFBYI
TAF AMD
KBYI 061601Z 0616/0712 23012KT P6SM BKN070
     FM061800 25010G20KT P6SM BKN050
     FM070300 24008KT P6SM BKN100=



000
FTUS45 KPIH 061509 AAC
TAFPIH
TAF AMD
KPIH 061509Z 0615/0712 06007KT P6SM SCT002 BKN080
     FM061900 22012G20KT P6SM SCT020 BKN060
     FM070000 21014KT P6SM BKN010=



000
FTUS45 KPIH 061509 AAC
TAFPIH
TAF AMD
KPIH 061509Z 0615/0712 06007KT P6SM SCT002 BKN080
     FM061900 22012G20KT P6SM SCT020 BKN060
     FM070000 21014KT P6SM BKN010=



000
FTUS45 KPIH 061508 AAB
TAFIDA
TAF AMD
KIDA 061508Z 0615/0712 36005KT 6SM BR SCT012 BKN030
     FM061700 22015KT P6SM SCT030 BKN080
     FM070000 21011KT P6SM BKN010 OVC030=



000
FTUS45 KPIH 061508 AAB
TAFIDA
TAF AMD
KIDA 061508Z 0615/0712 36005KT 6SM BR SCT012 BKN030
     FM061700 22015KT P6SM SCT030 BKN080
     FM070000 21011KT P6SM BKN010 OVC030=



000
FTUS45 KPIH 061429 AAB
TAFPIH
TAF AMD
KPIH 061429Z 0614/0712 06007KT 5SM BR SCT004 BKN080
     FM061900 22012G20KT P6SM SCT020 BKN060
     FM070000 21014KT P6SM BKN010=



000
FTUS45 KPIH 061429 AAB
TAFPIH
TAF AMD
KPIH 061429Z 0614/0712 06007KT 5SM BR SCT004 BKN080
     FM061900 22012G20KT P6SM SCT020 BKN060
     FM070000 21014KT P6SM BKN010=



000
FTUS45 KPIH 061422 AAA
TAFIDA
TAF AMD
KIDA 061422Z 0614/0712 36005KT 4SM BR OVC012
     FM061700 22015KT P6SM SCT012 OVC030
     FM070000 21011KT P6SM BKN010 OVC030=



000
FTUS45 KPIH 061422 AAA
TAFIDA
TAF AMD
KIDA 061422Z 0614/0712 36005KT 4SM BR OVC012
     FM061700 22015KT P6SM SCT012 OVC030
     FM070000 21011KT P6SM BKN010 OVC030=



000
FTUS45 KPIH 061120
TAFSUN
TAF
KSUN 061120Z 0612/0712 33008KT P6SM BKN150
     FM061900 16007KT P6SM BKN060
     FM070300 31009KT P6SM SCT100
      AMD LTD TO CLD VIS AND WIND TIL 061400=



000
FTUS45 KPIH 061120
TAFIDA
TAF
KIDA 061120Z 0612/0712 VRB05KT P6SM BKN035
     FM061900 22013G22KT P6SM SCT025 OVC120
     FM070000 21011KT P6SM BKN010 OVC030=



000
FTUS45 KPIH 061120
TAFBYI
TAF
KBYI 061120Z 0612/0712 18007KT P6SM SCT070
     FM061800 25010G20KT P6SM BKN120
     FM070300 24008KT P6SM BKN100=



000
FTUS45 KPIH 061120
TAFPIH
TAF
KPIH 061120Z 0612/0712 19009KT P6SM FEW040 BKN100
     FM061900 22017G27KT P6SM SCT020 BKN060
     FM070000 21014KT P6SM BKN010=



000
FTUS45 KPIH 061120
TAFBYI
TAF
KBYI 061120Z 0612/0712 18007KT P6SM SCT070
     FM061800 25010G20KT P6SM BKN120
     FM070300 24008KT P6SM BKN100=



000
FTUS45 KPIH 061120
TAFPIH
TAF
KPIH 061120Z 0612/0712 19009KT P6SM FEW040 BKN100
     FM061900 22017G27KT P6SM SCT020 BKN060
     FM070000 21014KT P6SM BKN010=



000
FTUS45 KPIH 061120
TAFSUN
TAF
KSUN 061120Z 0612/0712 33008KT P6SM BKN150
     FM061900 16007KT P6SM BKN060
     FM070300 31009KT P6SM SCT100
      AMD LTD TO CLD VIS AND WIND TIL 061400=



000
FTUS45 KPIH 061120
TAFIDA
TAF
KIDA 061120Z 0612/0712 VRB05KT P6SM BKN035
     FM061900 22013G22KT P6SM SCT025 OVC120
     FM070000 21011KT P6SM BKN010 OVC030=



000
FTUS45 KPIH 060904 AAB
TAFPIH
TAF AMD
KPIH 060904Z 0609/0706 VRB06KT 6SM BR SCT002
     FM061000 19009KT P6SM FEW040 BKN100
     FM061400 20013G22KT P6SM SCT040 BKN100
     FM061900 22017G27KT P6SM SCT020 BKN060=



000
FTUS45 KPIH 060715 AAA
TAFIDA
TAF AMD
KIDA 060715Z 0607/0706 36006KT P6SM SCT008 OVC015
      TEMPO 0607/0610 BKN008
     FM061000 20009KT P6SM BKN012 OVC025
     FM061900 22013G22KT P6SM SCT025 OVC120
     FM070000 21011KT P6SM BKN010 OVC030=



000
FTUS45 KPIH 060715 AAA
TAFIDA
TAF AMD
KIDA 060715Z 0607/0706 36006KT P6SM SCT008 OVC015
      TEMPO 0607/0610 BKN008
     FM061000 20009KT P6SM BKN012 OVC025
     FM061900 22013G22KT P6SM SCT025 OVC120
     FM070000 21011KT P6SM BKN010 OVC030=



000
FTUS45 KPIH 060714 AAA
TAFPIH
TAF AMD
KPIH 060714Z 0607/0706 VRB06KT 4SM BR SCT010
      TEMPO 0607/0610 1SM BR
     FM061000 19009KT P6SM FEW040 BKN100
     FM061400 20013G22KT P6SM SCT040 BKN100
     FM061900 22017G27KT P6SM SCT020 BKN060=



000
FTUS45 KPIH 060714 AAA
TAFPIH
TAF AMD
KPIH 060714Z 0607/0706 VRB06KT 4SM BR SCT010
      TEMPO 0607/0610 1SM BR
     FM061000 19009KT P6SM FEW040 BKN100
     FM061400 20013G22KT P6SM SCT040 BKN100
     FM061900 22017G27KT P6SM SCT020 BKN060=



000
FTUS45 KPIH 060527
TAFIDA
TAF
KIDA 060527Z 0606/0706 36006KT P6SM BKN004 OVC012
     FM061000 20009KT P6SM BKN012 OVC025
     FM061900 22013G22KT P6SM SCT025 OVC120
     FM070000 21011KT P6SM BKN010 OVC030=



000
FTUS45 KPIH 060527
TAFSUN
TAF
KSUN 060527Z 0606/0706 31011KT P6SM BKN120
     FM061900 16007KT P6SM BKN100
     FM070300 31009KT P6SM BKN100
      AMD LTD TO CLD VIS AND WIND TIL 061400=



000
FTUS45 KPIH 060527
TAFPIH
TAF
KPIH 060527Z 0606/0706 VRB06KT P6SM FEW035 BKN130
     FM060900 19009KT P6SM FEW040 BKN100
     FM061400 20013G22KT P6SM SCT040 BKN100
     FM061900 22017G27KT P6SM SCT020 BKN060=



000
FTUS45 KPIH 060527
TAFBYI
TAF
KBYI 060527Z 0606/0706 05006KT P6SM SCT040 BKN150
     FM061000 22011KT P6SM SCT070
     FM061800 23012G25KT P6SM OVC120
     FM070300 24008KT P6SM BKN100=



000
FTUS45 KPIH 060201 AAB
TAFIDA
TAF AMD
KIDA 060201Z 0602/0624 36006KT 3SM BR BKN005 OVC012
     FM060700 20011KT P6SM BKN012 OVC025
     FM061900 22013G22KT P6SM SCT025 OVC120=



000
FTUS45 KPIH 060201 AAB
TAFIDA
TAF AMD
KIDA 060201Z 0602/0624 36006KT 3SM BR BKN005 OVC012
     FM060700 20011KT P6SM BKN012 OVC025
     FM061900 22013G22KT P6SM SCT025 OVC120=



000
FTUS45 KPIH 060019 AAA
TAFIDA
TAF AMD
KIDA 060019Z 0600/0624 36006KT 2SM BR BKN008 OVC012
     FM060700 20011KT P6SM BKN012 OVC025
     FM061900 22013G22KT P6SM SCT025 OVC120=



000
FTUS45 KPIH 060019 AAA
TAFIDA
TAF AMD
KIDA 060019Z 0600/0624 36006KT 2SM BR BKN008 OVC012
     FM060700 20011KT P6SM BKN012 OVC025
     FM061900 22013G22KT P6SM SCT025 OVC120=



000
FTUS45 KPIH 052321
TAFBYI
TAF
KBYI 052321Z 0600/0624 05006KT P6SM SCT040 BKN150
     FM061000 22011KT P6SM SCT070
     FM061800 23012G25KT P6SM OVC120=



000
FTUS45 KPIH 052321
TAFIDA
TAF
KIDA 052321Z 0600/0624 36006KT 2SM BR BKN004 OVC010
     FM060700 20011KT P6SM BKN012 OVC025
     FM061900 22013G22KT P6SM SCT025 OVC120=



000
FTUS45 KPIH 052321
TAFPIH
TAF
KPIH 052321Z 0600/0624 VRB06KT P6SM BKN020 OVC035
      TEMPO 0601/0605 BKN035
     FM060500 20011KT P6SM SCT025 BKN070
     FM061400 20013G22KT P6SM SCT040 BKN100
     FM061900 22017G27KT P6SM SCT020 BKN060=



000
FTUS45 KPIH 052321
TAFPIH
TAF
KPIH 052321Z 0600/0624 VRB06KT P6SM BKN020 OVC035
      TEMPO 0601/0605 BKN035
     FM060500 20011KT P6SM SCT025 BKN070
     FM061400 20013G22KT P6SM SCT040 BKN100
     FM061900 22017G27KT P6SM SCT020 BKN060=



000
FTUS45 KPIH 052321
TAFSUN
TAF
KSUN 052321Z 0600/0624 15006KT P6SM FEW010 SCT100
     FM060300 31011KT P6SM BKN120
     FM061900 16007KT P6SM BKN100
      AMD LTD TO CLD VIS AND WIND 0606/0614=



000
FTUS45 KPIH 052321
TAFIDA
TAF
KIDA 052321Z 0600/0624 36006KT 2SM BR BKN004 OVC010
     FM060700 20011KT P6SM BKN012 OVC025
     FM061900 22013G22KT P6SM SCT025 OVC120=



000
FTUS45 KPIH 052321
TAFBYI
TAF
KBYI 052321Z 0600/0624 05006KT P6SM SCT040 BKN150
     FM061000 22011KT P6SM SCT070
     FM061800 23012G25KT P6SM OVC120=



000
FTUS45 KPIH 052321
TAFSUN
TAF
KSUN 052321Z 0600/0624 15006KT P6SM FEW010 SCT100
     FM060300 31011KT P6SM BKN120
     FM061900 16007KT P6SM BKN100
      AMD LTD TO CLD VIS AND WIND 0606/0614=



000
FTUS45 KPIH 052217 AAC
TAFPIH
TAF AMD
KPIH 052217Z 0522/0618 VRB06KT P6SM SCT007 OVC020
     FM060400 20011KT P6SM SCT040 BKN070=



000
FTUS45 KPIH 052152 AAB
TAFIDA
TAF AMD
KIDA 052152Z 0522/0618 36006KT 2SM BR OVC004
     FM060500 20013G20KT P6SM BKN012 OVC025=



000
FTUS45 KPIH 052152 AAA
TAFSUN
TAF AMD
KSUN 052152Z 0522/0618 15006KT P6SM SCT010 SCT100
     FM060300 31011KT P6SM SCT100=



000
FTUS45 KPIH 052151 AAB
TAFPIH
TAF AMD
KPIH 052151Z 0522/0618 VRB06KT P6SM BKN007 OVC020
     FM060400 20012G22KT P6SM SCT040 BKN070=



000
FTUS45 KPIH 052151 AAB
TAFPIH
TAF AMD
KPIH 052151Z 0522/0618 VRB06KT P6SM BKN007 OVC020
     FM060400 20012G22KT P6SM SCT040 BKN070=



000
FTUS45 KPIH 051902 AAA
TAFBYI
TAF AMD
KBYI 051902Z 0519/0618 VRB06KT P6SM SCT020 OVC040
      TEMPO 0519/0521 BKN020
     FM060000 20006KT P6SM SCT040
     FM061000 22014G24KT P6SM SCT070=



000
FTUS45 KPIH 051901 AAA
TAFIDA
TAF AMD
KIDA 051901Z 0519/0618 35007KT 3SM BR OVC004
     FM052100 22008KT P6SM SCT004 OVC012
     FM060500 20013G20KT P6SM BKN012 OVC025=



000
FTUS45 KPIH 051721
TAFSUN
TAF
KSUN 051721Z 0518/0618 VRB06KT P6SM SCT005 SCT150
     FM052000 15006KT P6SM BKN017 OVC040
     FM060300 31011KT P6SM SCT017=



000
FTUS45 KPIH 051721
TAFPIH
TAF
KPIH 051721Z 0518/0618 04006KT 6SM BR BKN006 OVC015
     FM052100 21009KT P6SM SCT025 BKN040
     FM060400 20012G22KT P6SM SCT040 BKN070=



000
FTUS45 KPIH 051721
TAFIDA
TAF
KIDA 051721Z 0518/0618 35007KT 1SM BR OVC004
     FM052100 22008KT P6SM SCT004 OVC012
     FM060500 20013G20KT P6SM BKN012 OVC025=



000
FTUS45 KPIH 051721
TAFSUN
TAF
KSUN 051721Z 0518/0618 VRB06KT P6SM SCT005 SCT150
     FM052000 15006KT P6SM BKN017 OVC040
     FM060300 31011KT P6SM SCT017=



000
FTUS45 KPIH 051721
TAFBYI
TAF
KBYI 051721Z 0518/0618 VRB06KT P6SM SCT010 OVC020
      TEMPO 0518/0521 BKN010
     FM060000 20006KT P6SM SCT040
     FM061000 22014G24KT P6SM SCT070=



000
FTUS45 KPIH 051721
TAFPIH
TAF
KPIH 051721Z 0518/0618 04006KT 6SM BR BKN006 OVC015
     FM052100 21009KT P6SM SCT025 BKN040
     FM060400 20012G22KT P6SM SCT040 BKN070=



000
FTUS45 KPIH 051721
TAFIDA
TAF
KIDA 051721Z 0518/0618 35007KT 1SM BR OVC004
     FM052100 22008KT P6SM SCT004 OVC012
     FM060500 20013G20KT P6SM BKN012 OVC025=



000
FTUS45 KPIH 051721
TAFBYI
TAF
KBYI 051721Z 0518/0618 VRB06KT P6SM SCT010 OVC020
      TEMPO 0518/0521 BKN010
     FM060000 20006KT P6SM SCT040
     FM061000 22014G24KT P6SM SCT070=



000
FTUS45 KPIH 051505 AAB
TAFPIH
TAF AMD
KPIH 051505Z 0515/0612 04006KT 6SM BR OVC005
     FM051900 VRB06KT P6SM SCT005 OVC015
     FM052100 21009KT P6SM SCT025 BKN040
     FM060400 20012KT P6SM SCT040=



000
FTUS45 KPIH 051505 AAB
TAFPIH
TAF AMD
KPIH 051505Z 0515/0612 04006KT 6SM BR OVC005
     FM051900 VRB06KT P6SM SCT005 OVC015
     FM052100 21009KT P6SM SCT025 BKN040
     FM060400 20012KT P6SM SCT040=



000
FTUS45 KPIH 051502 AAA
TAFIDA
TAF AMD
KIDA 051502Z 0515/0612 35007KT 3SM BR OVC005
      TEMPO 0515/0517 1SM BR OVC004
     FM052100 22008KT P6SM SCT007 OVC012
     FM060200 20006KT P6SM SCT012 BKN025=



000
FTUS45 KPIH 051257 AAA
TAFSUN
TAF AMD
KSUN 051257Z 0513/0612 32008KT P6SM SCT005
     FM052000 15006KT P6SM BKN017 OVC040
     FM060100 30005KT P6SM SCT017
      AMD LTD TO CLD VIS AND WIND TIL 051400=



000
FTUS45 KPIH 051257 AAA
TAFSUN
TAF AMD
KSUN 051257Z 0513/0612 32008KT P6SM SCT005
     FM052000 15006KT P6SM BKN017 OVC040
     FM060100 30005KT P6SM SCT017
      AMD LTD TO CLD VIS AND WIND TIL 051400=



000
FTUS45 KPIH 051256 AAA
TAFPIH
TAF AMD
KPIH 051256Z 0513/0612 VRB05KT P6SM SCT007 OVC015
      TEMPO 0513/0516 BKN007
     FM052100 21009KT P6SM SCT025 BKN040
     FM060400 20012KT P6SM SCT040=



000
FTUS45 KPIH 051256 AAA
TAFPIH
TAF AMD
KPIH 051256Z 0513/0612 VRB05KT P6SM SCT007 OVC015
      TEMPO 0513/0516 BKN007
     FM052100 21009KT P6SM SCT025 BKN040
     FM060400 20012KT P6SM SCT040=



000
FTUS45 KPIH 051120
TAFPIH
TAF
KPIH 051120Z 0512/0612 VRB05KT P6SM SCT007 OVC015
     FM052100 21009KT P6SM SCT025 BKN040
     FM060400 20012KT P6SM SCT040=



000
FTUS45 KPIH 051120
TAFSUN
TAF
KSUN 051120Z 0512/0612 32008KT P6SM SCT005
      TEMPO 0512/0515 BKN005
     FM052000 15006KT P6SM BKN017 OVC040
     FM060100 30005KT P6SM SCT017
      AMD LTD TO CLD VIS AND WIND TIL 051400=



000
FTUS45 KPIH 051120
TAFBYI
TAF
KBYI 051120Z 0512/0612 VRB05KT P6SM OVC015
     FM051800 23008KT P6SM SCT020 BKN040
     FM060000 20006KT P6SM SCT040=



000
FTUS45 KPIH 051120
TAFSUN
TAF
KSUN 051120Z 0512/0612 32008KT P6SM SCT005
      TEMPO 0512/0515 BKN005
     FM052000 15006KT P6SM BKN017 OVC040
     FM060100 30005KT P6SM SCT017
      AMD LTD TO CLD VIS AND WIND TIL 051400=



000
FTUS45 KPIH 051120
TAFBYI
TAF
KBYI 051120Z 0512/0612 VRB05KT P6SM OVC015
     FM051800 23008KT P6SM SCT020 BKN040
     FM060000 20006KT P6SM SCT040=



000
FTUS45 KPIH 051120
TAFPIH
TAF
KPIH 051120Z 0512/0612 VRB05KT P6SM SCT007 OVC015
     FM052100 21009KT P6SM SCT025 BKN040
     FM060400 20012KT P6SM SCT040=



000
FTUS45 KPIH 051120
TAFIDA
TAF
KIDA 051120Z 0512/0612 35007KT 4SM BR OVC004
      TEMPO 0512/0515 1SM BR OVC003
     FM052100 22008KT P6SM SCT007 OVC012
     FM060200 20006KT P6SM SCT012 BKN025=



000
FTUS45 KPIH 051120
TAFIDA
TAF
KIDA 051120Z 0512/0612 35007KT 4SM BR OVC004
      TEMPO 0512/0515 1SM BR OVC003
     FM052100 22008KT P6SM SCT007 OVC012
     FM060200 20006KT P6SM SCT012 BKN025=



000
FTUS45 KPIH 050941 AAA
TAFIDA
TAF AMD
KIDA 050941Z 0510/0606 35005KT 3SM BR OVC004
     FM052100 22008KT P6SM SCT007 OVC012
     FM060200 20006KT P6SM SCT012 BKN025=



    US Dept of Commerce
    National Oceanic and Atmospheric Administration
    National Weather Service
    1325 East West Highway
    Silver Spring, MD 20910
    Page Author: NWS Internet Services Team
Disclaimer
Information Quality
Credits
Glossary
Privacy Policy
Freedom of Information Act (FOIA)
About Us
Career Opportunities